createdAt,value
2018-09-15T00:05:11.134Z,100.00
2018-09-15T00:10:29.978Z,100.00
2018-09-15T00:15:48.772Z,100.00
2018-09-15T00:21:07.527Z,100.00
2018-09-15T00:26:26.056Z,100.00
2018-09-15T00:31:44.844Z,100.00
2018-09-15T00:37:05.124Z,100.00
2018-09-15T00:42:24.598Z,100.00
2018-09-15T00:47:43.656Z,100.00
2018-09-15T00:53:02.428Z,100.00
2018-09-15T00:58:20.983Z,100.00
2018-09-15T01:03:39.837Z,100.00
2018-09-15T01:08:58.862Z,100.00
2018-09-15T01:14:17.550Z,100.00
2018-09-15T01:19:36.412Z,100.00
2018-09-15T01:24:55.039Z,100.00
2018-09-15T01:30:13.682Z,100.00
2018-09-15T01:35:32.531Z,100.00
2018-09-15T01:40:51.056Z,100.00
2018-09-15T01:46:09.759Z,100.00
2018-09-15T01:51:29.889Z,100.00
2018-09-15T01:56:49.201Z,100.00
2018-09-15T02:02:07.727Z,100.00
2018-09-15T02:07:26.277Z,100.00
2018-09-15T02:12:44.970Z,100.00
2018-09-15T02:18:03.592Z,100.00
2018-09-15T02:23:22.167Z,100.00
2018-09-15T02:28:40.707Z,100.00
2018-09-15T02:34:00.291Z,100.00
2018-09-15T02:39:18.932Z,100.00
2018-09-15T02:44:37.669Z,100.00
2018-09-15T02:49:56.260Z,100.00
2018-09-15T02:55:16.234Z,100.00
2018-09-15T03:00:34.759Z,100.00
2018-09-15T03:05:53.918Z,100.00
2018-09-15T03:11:12.422Z,100.00
2018-09-15T03:16:31.730Z,100.00
2018-09-15T03:21:51.149Z,100.00
2018-09-15T03:27:09.894Z,100.00
2018-09-15T03:32:28.727Z,100.00
2018-09-15T03:37:47.299Z,100.00
2018-09-15T03:43:06.881Z,100.00
2018-09-15T03:48:25.766Z,100.00
2018-09-15T03:53:44.965Z,100.00
2018-09-15T03:59:04.153Z,100.00
2018-09-15T04:04:23.034Z,100.00
2018-09-15T04:09:41.651Z,100.00
2018-09-15T04:15:00.308Z,100.00
2018-09-15T04:20:18.860Z,100.00
2018-09-15T04:25:37.678Z,100.00
2018-09-15T04:30:56.262Z,100.00
2018-09-15T04:36:15.524Z,100.00
2018-09-15T04:41:34.139Z,100.00
2018-09-15T04:46:52.654Z,100.00
2018-09-15T04:52:11.636Z,100.00
2018-09-15T04:57:30.881Z,100.00
2018-09-15T05:02:49.471Z,100.00
2018-09-15T05:08:08.007Z,100.00
2018-09-15T05:13:27.159Z,100.00
2018-09-15T05:18:45.721Z,100.00
2018-09-15T05:24:04.304Z,100.00
2018-09-15T05:29:23.043Z,100.00
2018-09-15T05:34:41.682Z,100.00
2018-09-15T05:45:18.307Z,100.00
2018-09-15T05:50:36.881Z,100.00
2018-09-15T05:55:56.631Z,100.00
2018-09-15T06:01:15.211Z,100.00
2018-09-15T06:06:34.036Z,100.00
2018-09-15T06:11:53.616Z,100.00
2018-09-15T06:17:12.117Z,100.00
2018-09-15T06:22:30.651Z,100.00
2018-09-15T06:27:49.325Z,100.00
2018-09-15T06:33:07.907Z,100.00
2018-09-15T06:38:26.468Z,100.00
2018-09-15T06:43:45.148Z,100.00
2018-09-15T06:49:04.354Z,100.00
2018-09-15T06:54:23.902Z,100.00
2018-09-15T06:59:42.566Z,100.00
2018-09-15T07:29:31.586Z,73.33
2018-09-15T07:34:50.169Z,69.36
2018-09-15T07:40:08.673Z,68.48
2018-09-15T07:45:27.289Z,67.08
2018-09-15T07:50:45.815Z,64.97
2018-09-15T07:56:04.345Z,69.73
2018-09-15T08:01:22.877Z,71.16
2018-09-15T08:06:41.394Z,67.05
2018-09-15T08:11:59.934Z,60.72
2018-09-15T08:17:18.463Z,61.09
2018-09-15T08:22:37.020Z,63.34
2018-09-15T08:27:55.645Z,67.93
2018-09-15T08:38:31.723Z,67.58
2018-09-15T08:43:50.307Z,70.24
2018-09-15T08:49:09.101Z,73.47
2018-09-15T08:54:27.678Z,75.14
2018-09-15T08:59:46.981Z,77.07
2018-09-15T09:05:05.600Z,76.52
2018-09-15T09:10:24.306Z,74.89
2018-09-15T09:15:42.779Z,71.77
2018-09-15T09:21:01.287Z,71.15
2018-09-15T09:26:19.926Z,71.82
2018-09-15T09:31:38.371Z,72.68
2018-09-15T09:36:57.555Z,62.14
2018-09-15T09:42:16.664Z,62.68
2018-09-15T09:47:35.237Z,67.70
2018-09-15T09:52:53.776Z,63.21
2018-09-15T09:58:12.940Z,69.60
2018-09-15T10:03:31.579Z,71.74
2018-09-15T10:08:50.144Z,74.21
2018-09-15T10:14:08.657Z,75.81
2018-09-15T10:19:27.326Z,72.20
2018-09-15T10:24:45.936Z,67.67
2018-09-15T10:30:05.647Z,63.11
2018-09-15T10:35:24.264Z,56.28
2018-09-15T10:40:42.816Z,55.79
2018-09-15T10:46:01.509Z,58.62
2018-09-15T10:51:19.992Z,58.60
2018-09-15T10:56:38.713Z,65.09
2018-09-15T11:01:57.311Z,67.83
2018-09-15T11:07:16.635Z,67.25
2018-09-15T11:12:35.170Z,54.86
2018-09-15T11:17:53.726Z,49.81
2018-09-15T11:23:13.514Z,44.84
2018-09-15T11:28:32.155Z,48.21
2018-09-15T11:33:50.735Z,45.37
2018-09-15T11:39:10.906Z,47.13
2018-09-15T11:44:29.406Z,45.75
2018-09-15T11:49:47.933Z,45.50
2018-09-15T11:55:06.596Z,43.65
2018-09-15T12:00:27.916Z,46.28
2018-09-15T12:05:46.475Z,44.66
2018-09-15T12:11:05.060Z,48.90
2018-09-15T12:16:23.634Z,51.07
2018-09-15T12:21:43.076Z,51.90
2018-09-15T12:27:01.570Z,52.54
2018-09-15T12:32:20.103Z,50.19
2018-09-15T12:37:38.673Z,49.90
2018-09-15T12:42:57.176Z,48.92
2018-09-15T12:48:15.725Z,47.70
2018-09-15T12:53:34.218Z,49.33
2018-09-15T12:58:53.042Z,49.53
2018-09-15T13:04:11.866Z,50.74
2018-09-15T13:09:31.194Z,51.84
2018-09-15T13:14:49.825Z,53.07
2018-09-15T13:20:08.691Z,54.90
2018-09-15T13:25:27.330Z,55.80
2018-09-15T13:30:45.835Z,57.18
2018-09-15T13:36:04.564Z,57.68
2018-09-15T13:41:23.169Z,57.66
2018-09-15T13:46:41.773Z,57.14
2018-09-15T13:52:00.326Z,56.54
2018-09-15T13:57:19.129Z,55.57
2018-09-15T14:02:43.970Z,53.26
2018-09-15T14:08:03.266Z,51.86
2018-09-15T14:13:21.835Z,53.23
2018-09-15T14:18:40.481Z,53.55
2018-09-15T14:29:27.469Z,55.19
2018-09-15T14:34:47.724Z,60.04
2018-09-15T14:40:06.735Z,58.27
2018-09-15T14:45:26.679Z,59.71
2018-09-15T14:50:45.247Z,61.24
2018-09-15T14:56:03.907Z,65.84
2018-09-15T15:01:22.445Z,64.19
2018-09-15T15:06:40.945Z,66.34
2018-09-15T15:11:59.459Z,68.25
2018-09-15T15:17:17.979Z,68.24
2018-09-15T15:22:37.239Z,66.75
2018-09-15T15:27:55.779Z,69.80
2018-09-15T15:33:14.367Z,65.43
2018-09-15T15:38:33.286Z,60.74
2018-09-15T15:43:51.819Z,61.21
2018-09-15T15:49:11.050Z,58.56
2018-09-15T15:54:29.633Z,62.83
2018-09-15T15:59:48.251Z,62.48
2018-09-15T16:05:07.812Z,65.00
2018-09-15T16:10:26.429Z,65.88
2018-09-15T16:15:44.986Z,66.73
2018-09-15T16:21:03.503Z,66.88
2018-09-15T16:26:22.075Z,66.39
2018-09-15T16:31:40.693Z,67.84
2018-09-15T16:36:59.215Z,71.38
2018-09-15T16:42:17.746Z,72.87
2018-09-15T16:47:36.714Z,72.29
2018-09-15T16:52:55.267Z,70.87
2018-09-15T16:58:14.568Z,70.81
2018-09-15T17:03:33.156Z,72.02
2018-09-15T17:08:51.689Z,72.74
2018-09-15T17:14:10.283Z,72.06
2018-09-15T17:19:30.413Z,74.37
2018-09-15T17:24:48.951Z,74.83
2018-09-15T17:30:08.135Z,75.84
2018-09-15T17:35:26.702Z,77.00
2018-09-15T17:40:45.262Z,76.23
2018-09-15T17:46:04.058Z,78.10
2018-09-15T17:51:22.805Z,76.86
2018-09-15T17:56:41.387Z,77.33
2018-09-15T18:01:59.960Z,77.63
2018-09-15T18:07:18.880Z,78.41
2018-09-15T18:12:38.441Z,79.97
2018-09-15T18:17:57.008Z,79.29
2018-09-15T18:23:15.576Z,79.81
2018-09-15T18:28:34.471Z,80.56
2018-09-15T18:33:53.068Z,81.85
2018-09-15T18:39:12.029Z,82.24
2018-09-15T18:44:30.569Z,83.79
2018-09-15T18:49:49.931Z,84.48
2018-09-15T18:55:08.544Z,82.84
2018-09-15T19:00:27.453Z,83.20
2018-09-15T19:05:47.026Z,83.34
2018-09-15T19:11:05.825Z,83.59
2018-09-15T19:16:24.400Z,84.29
2018-09-15T19:21:43.598Z,84.02
2018-09-15T19:27:02.208Z,85.02
2018-09-15T19:32:20.763Z,85.68
2018-09-15T19:37:39.371Z,86.41
2018-09-15T19:42:58.509Z,86.61
2018-09-15T19:48:17.124Z,86.04
2018-09-15T19:53:35.832Z,86.01
2018-09-15T19:58:54.376Z,86.63
2018-09-15T20:04:13.126Z,87.31
2018-09-15T20:09:31.642Z,86.43
2018-09-15T20:14:50.258Z,87.70
2018-09-15T20:20:07.542Z,86.96
2018-09-15T20:25:26.262Z,86.89
2018-09-15T20:30:45.476Z,88.39
2018-09-15T20:36:04.279Z,88.46
2018-09-15T20:41:22.847Z,88.21
2018-09-15T20:46:41.398Z,87.77
2018-09-15T20:51:59.954Z,87.89
2018-09-15T20:57:18.608Z,88.24
2018-09-15T21:02:37.257Z,87.96
2018-09-15T21:07:55.836Z,88.85
2018-09-15T21:13:14.451Z,88.61
2018-09-15T21:18:33.343Z,88.91
2018-09-15T21:23:51.969Z,88.70
2018-09-15T21:29:10.898Z,89.04
2018-09-15T21:34:29.563Z,88.69
2018-09-15T21:39:48.135Z,88.93
2018-09-15T21:45:07.752Z,89.58
2018-09-15T21:50:26.868Z,90.37
2018-09-15T21:55:45.379Z,89.55
2018-09-15T22:01:04.768Z,89.11
2018-09-15T22:06:23.289Z,89.04
2018-09-15T22:11:42.583Z,89.13
2018-09-15T22:17:01.748Z,89.49
2018-09-15T22:22:20.755Z,90.69
2018-09-15T22:27:39.267Z,89.71
2018-09-15T22:32:57.858Z,90.59
2018-09-15T22:38:16.362Z,89.84
2018-09-15T22:43:34.975Z,90.44
2018-09-15T22:48:53.550Z,90.23
2018-09-15T22:54:12.128Z,90.22
2018-09-15T22:59:31.565Z,90.75
2018-09-15T23:04:50.100Z,90.73
2018-09-15T23:10:08.651Z,90.43
2018-09-15T23:15:27.799Z,90.27
2018-09-15T23:20:46.380Z,90.97
2018-09-15T23:26:05.432Z,90.95
2018-09-15T23:31:24.114Z,92.18
2018-09-15T23:36:43.493Z,91.25
2018-09-15T23:42:02.153Z,91.10
2018-09-15T23:47:23.594Z,91.37
2018-09-15T23:52:42.691Z,91.70
2018-09-15T23:58:01.860Z,91.24
